sensor_id;sensor_type;location;lat;lon;timestamp;P1;durP1;ratioP1;P2;durP2;ratioP2
19861;SDS011;10093;48.148;8.542;2022-08-02T00:00:10;3.67;;;2.42;;
19861;SDS011;10093;48.148;8.542;2022-08-02T00:02:37;3.58;;;2.58;;
19861;SDS011;10093;48.148;8.542;2022-08-02T00:05:03;3.50;;;2.20;;
19861;SDS011;10093;48.148;8.542;2022-08-02T00:07:29;3.35;;;1.80;;
19861;SDS011;10093;48.148;8.542;2022-08-02T00:09:55;2.42;;;1.95;;
19861;SDS011;10093;48.148;8.542;2022-08-02T00:12:20;2.17;;;1.50;;
19861;SDS011;10093;48.148;8.542;2022-08-02T00:14:46;2.70;;;1.52;;
19861;SDS011;10093;48.148;8.542;2022-08-02T00:17:12;3.08;;;1.50;;
19861;SDS011;10093;48.148;8.542;2022-08-02T00:19:37;2.17;;;1.58;;
19861;SDS011;10093;48.148;8.542;2022-08-02T00:22:03;1.92;;;1.70;;
19861;SDS011;10093;48.148;8.542;2022-08-02T00:24:30;5.90;;;2.03;;
19861;SDS011;10093;48.148;8.542;2022-08-02T00:26:55;2.75;;;1.75;;
19861;SDS011;10093;48.148;8.542;2022-08-02T00:29:21;3.30;;;1.85;;
19861;SDS011;10093;48.148;8.542;2022-08-02T00:31:47;2.10;;;1.83;;
19861;SDS011;10093;48.148;8.542;2022-08-02T00:34:12;2.28;;;1.52;;
19861;SDS011;10093;48.148;8.542;2022-08-02T00:36:38;1.95;;;1.60;;
19861;SDS011;10093;48.148;8.542;2022-08-02T00:39:04;2.10;;;1.70;;
19861;SDS011;10093;48.148;8.542;2022-08-02T00:41:30;2.75;;;1.80;;
19861;SDS011;10093;48.148;8.542;2022-08-02T00:43:55;4.47;;;2.80;;
19861;SDS011;10093;48.148;8.542;2022-08-02T00:46:21;2.80;;;2.50;;
19861;SDS011;10093;48.148;8.542;2022-08-02T00:48:47;5.43;;;3.55;;
19861;SDS011;10093;48.148;8.542;2022-08-02T00:51:13;4.15;;;3.22;;
19861;SDS011;10093;48.148;8.542;2022-08-02T00:53:40;3.78;;;2.53;;
19861;SDS011;10093;48.148;8.542;2022-08-02T00:56:06;3.55;;;2.55;;
19861;SDS011;10093;48.148;8.542;2022-08-02T00:58:31;4.40;;;2.40;;
19861;SDS011;10093;48.148;8.542;2022-08-02T01:00:57;3.80;;;2.13;;
19861;SDS011;10093;48.148;8.542;2022-08-02T01:03:25;6.53;;;2.47;;
19861;SDS011;10093;48.148;8.542;2022-08-02T01:05:50;3.65;;;2.60;;
19861;SDS011;10093;48.148;8.542;2022-08-02T01:08:16;2.90;;;2.03;;
19861;SDS011;10093;48.148;8.542;2022-08-02T01:10:42;4.07;;;3.22;;
19861;SDS011;10093;48.148;8.542;2022-08-02T01:13:08;2.45;;;1.95;;
19861;SDS011;10093;48.148;8.542;2022-08-02T01:15:34;3.50;;;2.50;;
19861;SDS011;10093;48.148;8.542;2022-08-02T01:18:05;2.40;;;2.08;;
19861;SDS011;10093;48.148;8.542;2022-08-02T01:21:05;3.05;;;2.08;;
19861;SDS011;10093;48.148;8.542;2022-08-02T01:32:02;2.77;;;2.33;;
19861;SDS011;10093;48.148;8.542;2022-08-02T01:34:38;8.02;;;4.05;;
19861;SDS011;10093;48.148;8.542;2022-08-02T01:37:18;5.75;;;3.30;;
19861;SDS011;10093;48.148;8.542;2022-08-02T01:39:50;2.25;;;2.05;;
19861;SDS011;10093;48.148;8.542;2022-08-02T01:42:18;6.78;;;3.10;;
19861;SDS011;10093;48.148;8.542;2022-08-02T01:44:45;4.57;;;2.90;;
19861;SDS011;10093;48.148;8.542;2022-08-02T01:47:16;6.22;;;2.75;;
19861;SDS011;10093;48.148;8.542;2022-08-02T01:49:45;3.75;;;2.30;;
19861;SDS011;10093;48.148;8.542;2022-08-02T01:52:15;3.95;;;2.10;;
19861;SDS011;10093;48.148;8.542;2022-08-02T01:55:11;5.40;;;2.35;;
19861;SDS011;10093;48.148;8.542;2022-08-02T01:57:41;3.33;;;2.30;;
19861;SDS011;10093;48.148;8.542;2022-08-02T02:00:18;2.15;;;1.95;;
19861;SDS011;10093;48.148;8.542;2022-08-02T02:02:47;3.85;;;2.50;;
19861;SDS011;10093;48.148;8.542;2022-08-02T02:05:17;2.30;;;2.00;;
19861;SDS011;10093;48.148;8.542;2022-08-02T02:07:45;2.53;;;1.98;;
19861;SDS011;10093;48.148;8.542;2022-08-02T02:10:15;4.28;;;2.58;;
19861;SDS011;10093;48.148;8.542;2022-08-02T02:12:43;3.10;;;2.15;;
19861;SDS011;10093;48.148;8.542;2022-08-02T02:15:12;4.22;;;2.17;;
19861;SDS011;10093;48.148;8.542;2022-08-02T02:17:40;8.38;;;2.50;;
19861;SDS011;10093;48.148;8.542;2022-08-02T02:20:12;2.78;;;2.00;;
19861;SDS011;10093;48.148;8.542;2022-08-02T02:22:41;2.58;;;2.03;;
19861;SDS011;10093;48.148;8.542;2022-08-02T02:25:07;2.33;;;2.08;;
19861;SDS011;10093;48.148;8.542;2022-08-02T02:27:35;2.83;;;2.30;;
19861;SDS011;10093;48.148;8.542;2022-08-02T02:30:03;3.45;;;2.55;;
19861;SDS011;10093;48.148;8.542;2022-08-02T02:32:29;3.72;;;2.70;;
19861;SDS011;10093;48.148;8.542;2022-08-02T02:34:57;4.30;;;2.75;;
19861;SDS011;10093;48.148;8.542;2022-08-02T02:37:25;2.28;;;2.03;;
19861;SDS011;10093;48.148;8.542;2022-08-02T02:39:53;2.63;;;2.17;;
19861;SDS011;10093;48.148;8.542;2022-08-02T02:42:21;2.63;;;2.42;;
19861;SDS011;10093;48.148;8.542;2022-08-02T02:44:51;2.22;;;2.00;;
19861;SDS011;10093;48.148;8.542;2022-08-02T02:47:18;2.35;;;1.90;;
19861;SDS011;10093;48.148;8.542;2022-08-02T02:49:46;2.72;;;1.80;;
19861;SDS011;10093;48.148;8.542;2022-08-02T02:52:14;2.67;;;1.92;;
19861;SDS011;10093;48.148;8.542;2022-08-02T02:54:41;6.07;;;2.40;;
19861;SDS011;10093;48.148;8.542;2022-08-02T02:57:09;2.25;;;2.03;;
19861;SDS011;10093;48.148;8.542;2022-08-02T02:59:35;2.60;;;2.40;;
19861;SDS011;10093;48.148;8.542;2022-08-02T03:02:02;2.65;;;2.45;;
19861;SDS011;10093;48.148;8.542;2022-08-02T03:04:30;4.82;;;3.28;;
19861;SDS011;10093;48.148;8.542;2022-08-02T03:06:56;7.80;;;2.83;;
19861;SDS011;10093;48.148;8.542;2022-08-02T03:09:24;4.97;;;2.95;;
19861;SDS011;10093;48.148;8.542;2022-08-02T03:11:49;6.55;;;3.63;;
19861;SDS011;10093;48.148;8.542;2022-08-02T03:14:17;10.73;;;4.32;;
19861;SDS011;10093;48.148;8.542;2022-08-02T03:16:47;7.45;;;3.40;;
19861;SDS011;10093;48.148;8.542;2022-08-02T03:19:16;4.50;;;2.40;;
19861;SDS011;10093;48.148;8.542;2022-08-02T03:21:44;6.68;;;3.53;;
19861;SDS011;10093;48.148;8.542;2022-08-02T03:24:11;5.05;;;3.05;;
19861;SDS011;10093;48.148;8.542;2022-08-02T03:26:37;3.40;;;3.10;;
19861;SDS011;10093;48.148;8.542;2022-08-02T03:29:04;7.20;;;2.80;;
19861;SDS011;10093;48.148;8.542;2022-08-02T03:31:30;5.45;;;2.38;;
19861;SDS011;10093;48.148;8.542;2022-08-02T03:33:57;6.88;;;2.30;;
19861;SDS011;10093;48.148;8.542;2022-08-02T03:36:24;3.22;;;2.10;;
19861;SDS011;10093;48.148;8.542;2022-08-02T03:38:52;3.90;;;2.17;;
19861;SDS011;10093;48.148;8.542;2022-08-02T03:41:19;4.22;;;2.90;;
19861;SDS011;10093;48.148;8.542;2022-08-02T03:43:47;7.03;;;2.38;;
19861;SDS011;10093;48.148;8.542;2022-08-02T03:46:14;6.18;;;2.65;;
19861;SDS011;10093;48.148;8.542;2022-08-02T03:48:43;2.88;;;2.10;;
19861;SDS011;10093;48.148;8.542;2022-08-02T03:51:09;2.67;;;2.20;;
19861;SDS011;10093;48.148;8.542;2022-08-02T03:53:35;8.13;;;2.67;;
19861;SDS011;10093;48.148;8.542;2022-08-02T03:56:03;7.95;;;3.10;;
19861;SDS011;10093;48.148;8.542;2022-08-02T03:58:29;3.40;;;2.63;;
19861;SDS011;10093;48.148;8.542;2022-08-02T04:00:56;4.38;;;2.30;;
19861;SDS011;10093;48.148;8.542;2022-08-02T04:03:22;2.67;;;2.42;;
19861;SDS011;10093;48.148;8.542;2022-08-02T04:05:48;3.95;;;2.83;;
19861;SDS011;10093;48.148;8.542;2022-08-02T04:08:14;6.00;;;3.55;;
19861;SDS011;10093;48.148;8.542;2022-08-02T04:10:39;10.25;;;4.28;;
19861;SDS011;10093;48.148;8.542;2022-08-02T04:13:25;10.68;;;5.30;;
19861;SDS011;10093;48.148;8.542;2022-08-02T04:15:54;8.70;;;4.78;;
19861;SDS011;10093;48.148;8.542;2022-08-02T04:18:25;13.35;;;5.38;;
19861;SDS011;10093;48.148;8.542;2022-08-02T04:20:54;17.08;;;5.95;;
19861;SDS011;10093;48.148;8.542;2022-08-02T04:23:22;9.25;;;5.07;;
19861;SDS011;10093;48.148;8.542;2022-08-02T04:25:49;10.52;;;4.85;;
19861;SDS011;10093;48.148;8.542;2022-08-02T04:28:16;5.30;;;3.80;;
19861;SDS011;10093;48.148;8.542;2022-08-02T04:30:42;10.57;;;4.57;;
19861;SDS011;10093;48.148;8.542;2022-08-02T04:33:09;6.18;;;4.45;;
19861;SDS011;10093;48.148;8.542;2022-08-02T04:35:35;8.02;;;4.35;;
19861;SDS011;10093;48.148;8.542;2022-08-02T04:38:01;6.55;;;3.95;;
19861;SDS011;10093;48.148;8.542;2022-08-02T04:40:26;7.07;;;3.05;;
19861;SDS011;10093;48.148;8.542;2022-08-02T04:42:52;5.97;;;2.45;;
19861;SDS011;10093;48.148;8.542;2022-08-02T04:45:18;6.25;;;2.70;;
19861;SDS011;10093;48.148;8.542;2022-08-02T04:47:45;5.38;;;2.80;;
19861;SDS011;10093;48.148;8.542;2022-08-02T04:50:11;8.90;;;2.90;;
19861;SDS011;10093;48.148;8.542;2022-08-02T04:52:36;4.63;;;2.92;;
19861;SDS011;10093;48.148;8.542;2022-08-02T04:55:02;6.70;;;3.00;;
19861;SDS011;10093;48.148;8.542;2022-08-02T04:57:28;4.93;;;2.90;;
19861;SDS011;10093;48.148;8.542;2022-08-02T05:00:12;4.53;;;2.95;;
19861;SDS011;10093;48.148;8.542;2022-08-02T05:02:38;6.28;;;3.40;;
19861;SDS011;10093;48.148;8.542;2022-08-02T05:05:04;4.75;;;3.13;;
19861;SDS011;10093;48.148;8.542;2022-08-02T05:07:30;6.00;;;2.80;;
19861;SDS011;10093;48.148;8.542;2022-08-02T05:09:56;8.38;;;2.85;;
19861;SDS011;10093;48.148;8.542;2022-08-02T05:12:21;6.63;;;3.05;;
19861;SDS011;10093;48.148;8.542;2022-08-02T05:14:48;4.75;;;1.33;;
19861;SDS011;10093;48.148;8.542;2022-08-02T05:17:14;4.22;;;1.20;;
19861;SDS011;10093;48.148;8.542;2022-08-02T05:19:40;0.80;;;0.80;;
19861;SDS011;10093;48.148;8.542;2022-08-02T05:22:05;1.77;;;1.02;;
19861;SDS011;10093;48.148;8.542;2022-08-02T05:24:31;0.90;;;0.90;;
19861;SDS011;10093;48.148;8.542;2022-08-02T05:26:57;2.47;;;0.80;;
19861;SDS011;10093;48.148;8.542;2022-08-02T05:29:23;3.67;;;0.88;;
19861;SDS011;10093;48.148;8.542;2022-08-02T05:31:48;0.95;;;0.68;;
19861;SDS011;10093;48.148;8.542;2022-08-02T05:34:14;0.70;;;0.70;;
19861;SDS011;10093;48.148;8.542;2022-08-02T05:36:40;1.38;;;0.80;;
19861;SDS011;10093;48.148;8.542;2022-08-02T05:39:05;1.80;;;0.70;;
19861;SDS011;10093;48.148;8.542;2022-08-02T05:41:31;2.53;;;0.80;;
19861;SDS011;10093;48.148;8.542;2022-08-02T05:43:57;1.45;;;0.70;;
19861;SDS011;10093;48.148;8.542;2022-08-02T05:46:23;1.77;;;0.60;;
19861;SDS011;10093;48.148;8.542;2022-08-02T05:48:48;3.53;;;1.00;;
19861;SDS011;10093;48.148;8.542;2022-08-02T05:51:18;3.42;;;0.82;;
19861;SDS011;10093;48.148;8.542;2022-08-02T05:54:11;2.17;;;1.05;;
19861;SDS011;10093;48.148;8.542;2022-08-02T05:59:49;2.88;;;1.00;;
19861;SDS011;10093;48.148;8.542;2022-08-02T06:05:11;1.52;;;0.80;;
19861;SDS011;10093;48.148;8.542;2022-08-02T06:07:40;1.25;;;1.00;;
19861;SDS011;10093;48.148;8.542;2022-08-02T06:10:08;2.28;;;1.00;;
19861;SDS011;10093;48.148;8.542;2022-08-02T06:12:40;4.35;;;1.10;;
19861;SDS011;10093;48.148;8.542;2022-08-02T06:15:13;1.65;;;1.05;;
19861;SDS011;10093;48.148;8.542;2022-08-02T06:17:40;1.02;;;0.90;;
19861;SDS011;10093;48.148;8.542;2022-08-02T06:20:06;4.53;;;0.70;;
19861;SDS011;10093;48.148;8.542;2022-08-02T06:22:34;1.30;;;0.88;;
19861;SDS011;10093;48.148;8.542;2022-08-02T06:25:04;1.40;;;0.90;;
19861;SDS011;10093;48.148;8.542;2022-08-02T06:27:30;0.80;;;0.80;;
19861;SDS011;10093;48.148;8.542;2022-08-02T06:29:57;2.50;;;0.80;;
19861;SDS011;10093;48.148;8.542;2022-08-02T06:32:22;0.70;;;0.70;;
19861;SDS011;10093;48.148;8.542;2022-08-02T06:34:50;1.40;;;0.98;;
19861;SDS011;10093;48.148;8.542;2022-08-02T06:37:25;2.30;;;1.10;;
19861;SDS011;10093;48.148;8.542;2022-08-02T06:43:12;3.10;;;0.90;;
19861;SDS011;10093;48.148;8.542;2022-08-02T06:45:45;1.10;;;1.00;;
19861;SDS011;10093;48.148;8.542;2022-08-02T06:48:10;3.50;;;0.85;;
19861;SDS011;10093;48.148;8.542;2022-08-02T06:50:36;0.82;;;0.82;;
19861;SDS011;10093;48.148;8.542;2022-08-02T06:53:03;2.47;;;0.80;;
19861;SDS011;10093;48.148;8.542;2022-08-02T06:55:30;1.10;;;0.93;;
19861;SDS011;10093;48.148;8.542;2022-08-02T06:57:56;1.20;;;0.95;;
19861;SDS011;10093;48.148;8.542;2022-08-02T07:00:22;0.98;;;0.70;;
19861;SDS011;10093;48.148;8.542;2022-08-02T07:02:48;1.80;;;0.70;;
19861;SDS011;10093;48.148;8.542;2022-08-02T07:05:14;2.50;;;0.80;;
19861;SDS011;10093;48.148;8.542;2022-08-02T07:07:40;1.38;;;0.65;;
19861;SDS011;10093;48.148;8.542;2022-08-02T07:10:06;1.52;;;0.88;;
19861;SDS011;10093;48.148;8.542;2022-08-02T07:12:32;2.13;;;0.85;;
19861;SDS011;10093;48.148;8.542;2022-08-02T07:14:59;0.90;;;0.70;;
19861;SDS011;10093;48.148;8.542;2022-08-02T07:17:26;4.57;;;0.70;;
19861;SDS011;10093;48.148;8.542;2022-08-02T07:19:52;2.50;;;0.80;;
19861;SDS011;10093;48.148;8.542;2022-08-02T07:22:18;1.77;;;0.63;;
19861;SDS011;10093;48.148;8.542;2022-08-02T07:24:47;1.58;;;0.60;;
19861;SDS011;10093;48.148;8.542;2022-08-02T07:27:13;0.80;;;0.50;;
19861;SDS011;10093;48.148;8.542;2022-08-02T07:29:39;1.95;;;0.55;;
19861;SDS011;10093;48.148;8.542;2022-08-02T07:32:05;2.45;;;0.60;;
19861;SDS011;10093;48.148;8.542;2022-08-02T07:34:31;1.02;;;0.63;;
19861;SDS011;10093;48.148;8.542;2022-08-02T07:36:56;2.25;;;0.60;;
19861;SDS011;10093;48.148;8.542;2022-08-02T07:39:22;0.65;;;0.40;;
19861;SDS011;10093;48.148;8.542;2022-08-02T07:41:48;2.15;;;0.60;;
19861;SDS011;10093;48.148;8.542;2022-08-02T07:44:16;1.40;;;0.80;;
19861;SDS011;10093;48.148;8.542;2022-08-02T07:46:42;2.58;;;0.40;;
19861;SDS011;10093;48.148;8.542;2022-08-02T07:49:09;2.08;;;0.50;;
19861;SDS011;10093;48.148;8.542;2022-08-02T07:51:34;1.13;;;0.50;;
19861;SDS011;10093;48.148;8.542;2022-08-02T07:54:00;2.00;;;0.60;;
19861;SDS011;10093;48.148;8.542;2022-08-02T07:56:26;3.15;;;0.68;;
19861;SDS011;10093;48.148;8.542;2022-08-02T07:58:52;6.28;;;0.57;;
19861;SDS011;10093;48.148;8.542;2022-08-02T08:01:18;3.20;;;0.47;;
19861;SDS011;10093;48.148;8.542;2022-08-02T08:03:44;1.95;;;0.30;;
19861;SDS011;10093;48.148;8.542;2022-08-02T08:06:10;4.63;;;0.60;;
19861;SDS011;10093;48.148;8.542;2022-08-02T08:08:35;1.20;;;0.60;;
19861;SDS011;10093;48.148;8.542;2022-08-02T08:11:01;3.80;;;0.60;;
19861;SDS011;10093;48.148;8.542;2022-08-02T08:13:27;3.85;;;0.63;;
19861;SDS011;10093;48.148;8.542;2022-08-02T08:15:53;2.03;;;0.60;;
19861;SDS011;10093;48.148;8.542;2022-08-02T08:18:19;5.18;;;0.70;;
19861;SDS011;10093;48.148;8.542;2022-08-02T08:20:45;10.35;;;0.70;;
19861;SDS011;10093;48.148;8.542;2022-08-02T08:23:11;7.70;;;0.82;;
19861;SDS011;10093;48.148;8.542;2022-08-02T08:25:37;6.60;;;0.60;;
19861;SDS011;10093;48.148;8.542;2022-08-02T08:28:03;6.53;;;0.80;;
19861;SDS011;10093;48.148;8.542;2022-08-02T08:30:29;4.50;;;0.77;;
19861;SDS011;10093;48.148;8.542;2022-08-02T08:32:54;2.22;;;0.68;;
19861;SDS011;10093;48.148;8.542;2022-08-02T08:35:20;3.03;;;0.85;;
19861;SDS011;10093;48.148;8.542;2022-08-02T08:37:46;11.15;;;0.98;;
19861;SDS011;10093;48.148;8.542;2022-08-02T08:40:11;2.88;;;0.50;;
19861;SDS011;10093;48.148;8.542;2022-08-02T08:42:38;4.13;;;0.50;;
19861;SDS011;10093;48.148;8.542;2022-08-02T08:45:04;2.38;;;0.60;;
19861;SDS011;10093;48.148;8.542;2022-08-02T08:47:35;0.88;;;0.50;;
19861;SDS011;10093;48.148;8.542;2022-08-02T08:50:06;0.60;;;0.50;;
19861;SDS011;10093;48.148;8.542;2022-08-02T08:52:40;1.23;;;0.70;;
19861;SDS011;10093;48.148;8.542;2022-08-02T08:55:09;1.10;;;0.60;;
19861;SDS011;10093;48.148;8.542;2022-08-02T08:57:39;0.90;;;0.52;;
19861;SDS011;10093;48.148;8.542;2022-08-02T09:00:07;0.65;;;0.65;;
19861;SDS011;10093;48.148;8.542;2022-08-02T09:02:41;3.03;;;0.65;;
19861;SDS011;10093;48.148;8.542;2022-08-02T09:05:10;3.08;;;0.70;;
19861;SDS011;10093;48.148;8.542;2022-08-02T09:07:37;0.85;;;0.60;;
19861;SDS011;10093;48.148;8.542;2022-08-02T09:15:52;1.02;;;0.73;;
19861;SDS011;10093;48.148;8.542;2022-08-02T09:18:20;3.33;;;0.90;;
19861;SDS011;10093;48.148;8.542;2022-08-02T09:21:05;3.58;;;0.80;;
19861;SDS011;10093;48.148;8.542;2022-08-02T09:23:41;3.35;;;0.80;;
19861;SDS011;10093;48.148;8.542;2022-08-02T09:26:14;2.13;;;0.70;;
19861;SDS011;10093;48.148;8.542;2022-08-02T09:28:42;4.30;;;0.60;;
19861;SDS011;10093;48.148;8.542;2022-08-02T09:33:39;1.00;;;0.50;;
19861;SDS011;10093;48.148;8.542;2022-08-02T09:36:10;2.15;;;0.80;;
19861;SDS011;10093;48.148;8.542;2022-08-02T09:38:37;0.80;;;0.80;;
19861;SDS011;10093;48.148;8.542;2022-08-02T09:41:05;0.77;;;0.68;;
19861;SDS011;10093;48.148;8.542;2022-08-02T09:43:43;2.03;;;0.70;;
19861;SDS011;10093;48.148;8.542;2022-08-02T09:46:18;3.08;;;0.65;;
19861;SDS011;10093;48.148;8.542;2022-08-02T09:48:48;0.70;;;0.65;;
19861;SDS011;10093;48.148;8.542;2022-08-02T09:51:25;0.50;;;0.50;;
19861;SDS011;10093;48.148;8.542;2022-08-02T09:53:52;0.90;;;0.65;;
19861;SDS011;10093;48.148;8.542;2022-08-02T09:56:19;4.13;;;0.60;;
19861;SDS011;10093;48.148;8.542;2022-08-02T09:58:47;2.10;;;0.47;;
19861;SDS011;10093;48.148;8.542;2022-08-02T10:01:13;3.55;;;0.63;;
19861;SDS011;10093;48.148;8.542;2022-08-02T10:03:52;0.52;;;0.50;;
19861;SDS011;10093;48.148;8.542;2022-08-02T10:06:22;2.70;;;0.40;;
19861;SDS011;10093;48.148;8.542;2022-08-02T10:08:48;4.07;;;0.40;;
19861;SDS011;10093;48.148;8.542;2022-08-02T10:11:15;0.95;;;0.50;;
19861;SDS011;10093;48.148;8.542;2022-08-02T10:13:41;1.48;;;0.60;;
19861;SDS011;10093;48.148;8.542;2022-08-02T10:16:07;2.90;;;0.60;;
19861;SDS011;10093;48.148;8.542;2022-08-02T10:18:33;1.67;;;0.52;;
19861;SDS011;10093;48.148;8.542;2022-08-02T10:21:00;2.88;;;0.60;;
19861;SDS011;10093;48.148;8.542;2022-08-02T10:23:28;1.75;;;0.50;;
19861;SDS011;10093;48.148;8.542;2022-08-02T10:25:58;6.05;;;0.73;;
19861;SDS011;10093;48.148;8.542;2022-08-02T10:28:25;1.83;;;0.50;;
19861;SDS011;10093;48.148;8.542;2022-08-02T10:30:54;2.70;;;0.50;;
19861;SDS011;10093;48.148;8.542;2022-08-02T10:33:21;2.97;;;0.57;;
19861;SDS011;10093;48.148;8.542;2022-08-02T10:35:51;6.82;;;0.65;;
19861;SDS011;10093;48.148;8.542;2022-08-02T10:38:21;2.78;;;0.55;;
19861;SDS011;10093;48.148;8.542;2022-08-02T10:40:51;3.60;;;0.47;;
19861;SDS011;10093;48.148;8.542;2022-08-02T10:43:39;1.15;;;0.52;;
19861;SDS011;10093;48.148;8.542;2022-08-02T10:56:55;0.50;;;0.50;;
19861;SDS011;10093;48.148;8.542;2022-08-02T10:59:23;0.88;;;0.70;;
19861;SDS011;10093;48.148;8.542;2022-08-02T11:01:49;3.60;;;0.60;;
19861;SDS011;10093;48.148;8.542;2022-08-02T11:04:16;2.05;;;0.60;;
19861;SDS011;10093;48.148;8.542;2022-08-02T11:09:38;4.22;;;0.50;;
19861;SDS011;10093;48.148;8.542;2022-08-02T11:12:06;4.07;;;0.50;;
19861;SDS011;10093;48.148;8.542;2022-08-02T11:14:37;0.73;;;0.40;;
19861;SDS011;10093;48.148;8.542;2022-08-02T11:17:08;3.17;;;0.50;;
19861;SDS011;10093;48.148;8.542;2022-08-02T11:22:38;0.88;;;0.55;;
19861;SDS011;10093;48.148;8.542;2022-08-02T11:27:52;3.92;;;0.43;;
19861;SDS011;10093;48.148;8.542;2022-08-02T11:30:21;0.80;;;0.30;;
19861;SDS011;10093;48.148;8.542;2022-08-02T11:32:48;0.95;;;0.45;;
19861;SDS011;10093;48.148;8.542;2022-08-02T11:35:14;3.05;;;0.60;;
19861;SDS011;10093;48.148;8.542;2022-08-02T11:37:41;2.58;;;0.60;;
19861;SDS011;10093;48.148;8.542;2022-08-02T11:40:09;0.55;;;0.50;;
19861;SDS011;10093;48.148;8.542;2022-08-02T11:42:40;2.63;;;0.40;;
19861;SDS011;10093;48.148;8.542;2022-08-02T11:45:08;5.43;;;0.80;;
19861;SDS011;10093;48.148;8.542;2022-08-02T11:47:45;5.88;;;0.80;;
19861;SDS011;10093;48.148;8.542;2022-08-02T11:50:13;5.07;;;0.50;;
19861;SDS011;10093;48.148;8.542;2022-08-02T11:52:41;4.75;;;0.65;;
19861;SDS011;10093;48.148;8.542;2022-08-02T11:55:07;2.92;;;0.52;;
19861;SDS011;10093;48.148;8.542;2022-08-02T11:57:34;3.83;;;0.60;;
19861;SDS011;10093;48.148;8.542;2022-08-02T12:00:01;1.10;;;0.50;;
19861;SDS011;10093;48.148;8.542;2022-08-02T12:02:29;2.67;;;0.68;;
19861;SDS011;10093;48.148;8.542;2022-08-02T12:05:00;4.22;;;0.75;;
19861;SDS011;10093;48.148;8.542;2022-08-02T12:07:32;2.30;;;0.60;;
19861;SDS011;10093;48.148;8.542;2022-08-02T12:09:59;2.75;;;0.50;;
19861;SDS011;10093;48.148;8.542;2022-08-02T12:12:26;0.85;;;0.60;;
19861;SDS011;10093;48.148;8.542;2022-08-02T12:14:52;1.30;;;0.50;;
19861;SDS011;10093;48.148;8.542;2022-08-02T12:17:21;2.67;;;1.02;;
19861;SDS011;10093;48.148;8.542;2022-08-02T12:20:07;1.65;;;0.60;;
19861;SDS011;10093;48.148;8.542;2022-08-02T12:22:33;2.92;;;0.70;;
19861;SDS011;10093;48.148;8.542;2022-08-02T12:25:13;1.67;;;0.60;;
19861;SDS011;10093;48.148;8.542;2022-08-02T12:27:41;0.95;;;0.40;;
19861;SDS011;10093;48.148;8.542;2022-08-02T12:32:34;1.38;;;0.50;;
19861;SDS011;10093;48.148;8.542;2022-08-02T12:37:33;1.40;;;0.50;;
19861;SDS011;10093;48.148;8.542;2022-08-02T12:42:59;2.65;;;0.55;;
19861;SDS011;10093;48.148;8.542;2022-08-02T12:45:50;0.40;;;0.40;;
19861;SDS011;10093;48.148;8.542;2022-08-02T12:48:30;1.73;;;0.43;;
19861;SDS011;10093;48.148;8.542;2022-08-02T12:50:56;0.90;;;0.40;;
19861;SDS011;10093;48.148;8.542;2022-08-02T12:53:21;1.75;;;0.50;;
19861;SDS011;10093;48.148;8.542;2022-08-02T12:55:57;1.55;;;0.50;;
19861;SDS011;10093;48.148;8.542;2022-08-02T12:58:23;4.07;;;0.70;;
19861;SDS011;10093;48.148;8.542;2022-08-02T13:00:53;1.55;;;0.50;;
19861;SDS011;10093;48.148;8.542;2022-08-02T13:03:23;1.80;;;0.60;;
19861;SDS011;10093;48.148;8.542;2022-08-02T13:05:49;3.95;;;0.60;;
19861;SDS011;10093;48.148;8.542;2022-08-02T13:08:15;1.55;;;0.50;;
19861;SDS011;10093;48.148;8.542;2022-08-02T13:10:41;2.95;;;0.70;;
19861;SDS011;10093;48.148;8.542;2022-08-02T13:13:08;1.25;;;0.50;;
19861;SDS011;10093;48.148;8.542;2022-08-02T13:15:33;1.45;;;0.50;;
19861;SDS011;10093;48.148;8.542;2022-08-02T13:17:59;0.60;;;0.50;;
19861;SDS011;10093;48.148;8.542;2022-08-02T13:20:25;2.03;;;0.53;;
19861;SDS011;10093;48.148;8.542;2022-08-02T13:22:51;1.95;;;0.60;;
19861;SDS011;10093;48.148;8.542;2022-08-02T13:25:18;1.70;;;0.40;;
19861;SDS011;10093;48.148;8.542;2022-08-02T13:27:50;1.13;;;0.45;;
19861;SDS011;10093;48.148;8.542;2022-08-02T13:30:17;1.35;;;0.55;;
19861;SDS011;10093;48.148;8.542;2022-08-02T13:32:42;4.00;;;0.73;;
19861;SDS011;10093;48.148;8.542;2022-08-02T13:35:08;0.43;;;0.40;;
19861;SDS011;10093;48.148;8.542;2022-08-02T13:37:34;3.60;;;0.40;;
19861;SDS011;10093;48.148;8.542;2022-08-02T13:40:01;0.40;;;0.40;;
19861;SDS011;10093;48.148;8.542;2022-08-02T13:42:27;0.57;;;0.57;;
19861;SDS011;10093;48.148;8.542;2022-08-02T13:44:52;0.75;;;0.47;;
19861;SDS011;10093;48.148;8.542;2022-08-02T13:47:18;0.82;;;0.52;;
19861;SDS011;10093;48.148;8.542;2022-08-02T13:49:44;1.00;;;0.50;;
19861;SDS011;10093;48.148;8.542;2022-08-02T13:52:09;3.10;;;0.60;;
19861;SDS011;10093;48.148;8.542;2022-08-02T13:54:35;2.80;;;0.50;;
19861;SDS011;10093;48.148;8.542;2022-08-02T13:57:00;0.73;;;0.50;;
19861;SDS011;10093;48.148;8.542;2022-08-02T13:59:26;2.15;;;0.40;;
19861;SDS011;10093;48.148;8.542;2022-08-02T14:01:52;1.00;;;0.60;;
19861;SDS011;10093;48.148;8.542;2022-08-02T14:04:20;0.40;;;0.40;;
19861;SDS011;10093;48.148;8.542;2022-08-02T14:06:46;1.05;;;0.50;;
19861;SDS011;10093;48.148;8.542;2022-08-02T14:09:11;2.92;;;0.63;;
19861;SDS011;10093;48.148;8.542;2022-08-02T14:11:37;3.72;;;0.50;;
19861;SDS011;10093;48.148;8.542;2022-08-02T14:14:03;2.17;;;0.50;;
19861;SDS011;10093;48.148;8.542;2022-08-02T14:16:28;0.70;;;0.65;;
19861;SDS011;10093;48.148;8.542;2022-08-02T14:18:54;1.80;;;0.50;;
19861;SDS011;10093;48.148;8.542;2022-08-02T14:21:21;0.50;;;0.50;;
19861;SDS011;10093;48.148;8.542;2022-08-02T14:23:47;0.40;;;0.40;;
19861;SDS011;10093;48.148;8.542;2022-08-02T14:26:12;1.65;;;0.55;;
19861;SDS011;10093;48.148;8.542;2022-08-02T14:28:38;0.50;;;0.45;;
19861;SDS011;10093;48.148;8.542;2022-08-02T14:31:04;1.25;;;0.40;;
19861;SDS011;10093;48.148;8.542;2022-08-02T14:33:29;2.05;;;0.55;;
19861;SDS011;10093;48.148;8.542;2022-08-02T14:35:55;1.45;;;0.68;;
19861;SDS011;10093;48.148;8.542;2022-08-02T14:38:21;0.47;;;0.43;;
19861;SDS011;10093;48.148;8.542;2022-08-02T14:40:47;2.80;;;0.40;;
19861;SDS011;10093;48.148;8.542;2022-08-02T14:43:13;1.42;;;0.50;;
19861;SDS011;10093;48.148;8.542;2022-08-02T14:48:24;0.95;;;0.50;;
19861;SDS011;10093;48.148;8.542;2022-08-02T14:50:50;1.20;;;0.70;;
19861;SDS011;10093;48.148;8.542;2022-08-02T14:53:15;2.22;;;0.47;;
19861;SDS011;10093;48.148;8.542;2022-08-02T14:55:41;1.33;;;0.60;;
19861;SDS011;10093;48.148;8.542;2022-08-02T14:58:07;4.63;;;0.82;;
19861;SDS011;10093;48.148;8.542;2022-08-02T15:00:34;0.60;;;0.60;;
19861;SDS011;10093;48.148;8.542;2022-08-02T15:02:59;0.65;;;0.65;;
19861;SDS011;10093;48.148;8.542;2022-08-02T15:05:25;2.35;;;0.60;;
19861;SDS011;10093;48.148;8.542;2022-08-02T15:07:50;1.13;;;0.57;;
19861;SDS011;10093;48.148;8.542;2022-08-02T15:10:16;3.80;;;0.75;;
19861;SDS011;10093;48.148;8.542;2022-08-02T15:12:42;1.70;;;0.50;;
19861;SDS011;10093;48.148;8.542;2022-08-02T15:15:07;2.15;;;0.50;;
19861;SDS011;10093;48.148;8.542;2022-08-02T15:17:33;1.75;;;0.50;;
19861;SDS011;10093;48.148;8.542;2022-08-02T15:19:59;2.30;;;0.60;;
19861;SDS011;10093;48.148;8.542;2022-08-02T15:22:24;0.82;;;0.65;;
19861;SDS011;10093;48.148;8.542;2022-08-02T15:24:50;0.60;;;0.50;;
19861;SDS011;10093;48.148;8.542;2022-08-02T15:27:15;0.50;;;0.50;;
19861;SDS011;10093;48.148;8.542;2022-08-02T15:29:42;3.20;;;0.60;;
19861;SDS011;10093;48.148;8.542;2022-08-02T15:32:09;1.50;;;0.50;;
19861;SDS011;10093;48.148;8.542;2022-08-02T15:34:35;4.72;;;0.63;;
19861;SDS011;10093;48.148;8.542;2022-08-02T15:37:00;0.68;;;0.60;;
19861;SDS011;10093;48.148;8.542;2022-08-02T15:39:26;0.52;;;0.52;;
19861;SDS011;10093;48.148;8.542;2022-08-02T15:41:52;1.20;;;0.50;;
19861;SDS011;10093;48.148;8.542;2022-08-02T15:44:18;4.38;;;0.60;;
19861;SDS011;10093;48.148;8.542;2022-08-02T15:46:43;0.50;;;0.50;;